香港 の空港の天気 - METARとTAF

香港国際空港 ( VHHH / HKG ) - 香港 赤リョウ角
飛行場実況気象(Metar)
観測時間06/18 15:30 HKT (06/18 07:30 UTC)
風向・風速南西 7m/s
視程10km以上
天気現象
少しの雲 雲底高度 760m
気温32℃
湿度63%
気圧1001hPa
METARVHHH 180730Z 22013KT 9999 FEW025 32/24 Q1001 NOSIG
過去の天気等 Google飛行場航空写真 Wunderground天気予報

過去48時間のMETAR

飛行場予報(TAF)
発表時間: 6/18 13:00 HKT (6/18 05:00 UTC)
予報対象時間: 18日14時 HKT ~ 19日20時 HKT
風向・風速西南西 5m/s
視程10km以上
少しの雲 雲底高度 760m
19日4時 HKT ~ 19日10時 HKT に一時的に
視程4000m
天気現象しゅう雨
TAF VHHH 180500Z 1806/1912 24010KT 9999 FEW025 TX33/1806Z TX33/1906Z TN27/1822Z
TEMPO 1820/1902 4000 SHRA